sensor_id;sensor_type;location;lat;lon;timestamp;P1;durP1;ratioP1;P2;durP2;ratioP2
77026;SDS011;65956;52.986;17.490;2023-04-06T01:02:45;24.60;;;10.40;;
77026;SDS011;65956;52.986;17.490;2023-04-06T01:05:13;28.00;;;11.60;;
77026;SDS011;65956;52.986;17.490;2023-04-06T01:07:47;28.20;;;13.10;;
77026;SDS011;65956;52.986;17.490;2023-04-06T01:10:26;29.00;;;13.90;;
77026;SDS011;65956;52.986;17.490;2023-04-06T01:12:59;26.90;;;13.30;;
77026;SDS011;65956;52.986;17.490;2023-04-06T01:15:41;29.40;;;13.60;;
77026;SDS011;65956;52.986;17.490;2023-04-06T01:18:08;28.70;;;12.80;;
77026;SDS011;65956;52.986;17.490;2023-04-06T01:20:40;24.30;;;10.90;;
77026;SDS011;65956;52.986;17.490;2023-04-06T01:23:06;29.80;;;10.80;;
77026;SDS011;65956;52.986;17.490;2023-04-06T01:25:32;24.30;;;10.00;;
77026;SDS011;65956;52.986;17.490;2023-04-06T01:28:06;21.30;;;9.90;;
77026;SDS011;65956;52.986;17.490;2023-04-06T01:30:52;20.80;;;10.20;;
77026;SDS011;65956;52.986;17.490;2023-04-06T01:33:37;25.40;;;12.00;;
77026;SDS011;65956;52.986;17.490;2023-04-06T01:36:07;27.00;;;11.40;;
77026;SDS011;65956;52.986;17.490;2023-04-06T01:38:34;22.90;;;11.60;;
77026;SDS011;65956;52.986;17.490;2023-04-06T01:41:01;22.40;;;10.60;;
77026;SDS011;65956;52.986;17.490;2023-04-06T01:43:31;24.90;;;11.00;;
77026;SDS011;65956;52.986;17.490;2023-04-06T01:46:03;18.70;;;8.90;;
77026;SDS011;65956;52.986;17.490;2023-04-06T01:48:33;23.00;;;9.70;;
77026;SDS011;65956;52.986;17.490;2023-04-06T01:51:02;21.50;;;10.50;;
77026;SDS011;65956;52.986;17.490;2023-04-06T01:53:30;24.10;;;10.30;;
77026;SDS011;65956;52.986;17.490;2023-04-06T01:56:01;23.20;;;10.60;;
77026;SDS011;65956;52.986;17.490;2023-04-06T01:58:33;22.40;;;9.80;;
77026;SDS011;65956;52.986;17.490;2023-04-06T02:01:00;23.40;;;10.70;;
77026;SDS011;65956;52.986;17.490;2023-04-06T02:03:27;23.70;;;10.50;;
77026;SDS011;65956;52.986;17.490;2023-04-06T02:06:00;20.50;;;9.60;;
77026;SDS011;65956;52.986;17.490;2023-04-06T02:08:31;23.50;;;9.60;;
77026;SDS011;65956;52.986;17.490;2023-04-06T02:10:57;20.10;;;8.60;;
77026;SDS011;65956;52.986;17.490;2023-04-06T02:13:29;21.40;;;10.20;;
77026;SDS011;65956;52.986;17.490;2023-04-06T02:15:55;22.40;;;10.40;;
77026;SDS011;65956;52.986;17.490;2023-04-06T02:18:22;25.80;;;11.60;;
77026;SDS011;65956;52.986;17.490;2023-04-06T02:20:48;27.00;;;12.70;;
77026;SDS011;65956;52.986;17.490;2023-04-06T02:23:14;24.90;;;10.60;;
77026;SDS011;65956;52.986;17.490;2023-04-06T02:25:41;22.10;;;10.20;;
77026;SDS011;65956;52.986;17.490;2023-04-06T02:28:07;20.80;;;9.50;;
77026;SDS011;65956;52.986;17.490;2023-04-06T02:30:33;23.20;;;10.10;;
77026;SDS011;65956;52.986;17.490;2023-04-06T02:33:00;22.00;;;10.10;;
77026;SDS011;65956;52.986;17.490;2023-04-06T02:35:27;22.80;;;10.00;;
77026;SDS011;65956;52.986;17.490;2023-04-06T02:37:55;20.00;;;10.00;;
77026;SDS011;65956;52.986;17.490;2023-04-06T02:40:21;22.40;;;9.90;;
77026;SDS011;65956;52.986;17.490;2023-04-06T02:42:47;22.10;;;10.80;;
77026;SDS011;65956;52.986;17.490;2023-04-06T02:45:13;25.20;;;13.20;;
77026;SDS011;65956;52.986;17.490;2023-04-06T02:47:42;33.20;;;15.60;;
77026;SDS011;65956;52.986;17.490;2023-04-06T02:50:09;33.00;;;14.30;;
77026;SDS011;65956;52.986;17.490;2023-04-06T02:52:39;23.10;;;11.40;;
77026;SDS011;65956;52.986;17.490;2023-04-06T02:55:08;24.20;;;10.90;;
77026;SDS011;65956;52.986;17.490;2023-04-06T02:57:34;20.90;;;9.50;;
77026;SDS011;65956;52.986;17.490;2023-04-06T03:00:01;21.30;;;9.50;;
77026;SDS011;65956;52.986;17.490;2023-04-06T03:02:34;19.90;;;9.50;;
77026;SDS011;65956;52.986;17.490;2023-04-06T03:05:05;19.90;;;9.60;;
77026;SDS011;65956;52.986;17.490;2023-04-06T03:07:35;18.30;;;9.60;;
77026;SDS011;65956;52.986;17.490;2023-04-06T03:10:01;21.50;;;10.50;;
77026;SDS011;65956;52.986;17.490;2023-04-06T03:12:29;24.60;;;11.80;;
77026;SDS011;65956;52.986;17.490;2023-04-06T03:15:28;27.40;;;11.60;;
77026;SDS011;65956;52.986;17.490;2023-04-06T03:18:01;28.20;;;13.80;;
77026;SDS011;65956;52.986;17.490;2023-04-06T03:20:34;39.20;;;17.10;;
77026;SDS011;65956;52.986;17.490;2023-04-06T03:23:00;28.40;;;13.20;;
77026;SDS011;65956;52.986;17.490;2023-04-06T03:25:28;27.00;;;12.90;;
77026;SDS011;65956;52.986;17.490;2023-04-06T03:27:58;26.10;;;11.80;;
77026;SDS011;65956;52.986;17.490;2023-04-06T03:30:24;23.80;;;10.70;;
77026;SDS011;65956;52.986;17.490;2023-04-06T03:32:51;21.30;;;10.50;;
77026;SDS011;65956;52.986;17.490;2023-04-06T03:35:18;24.80;;;12.30;;
77026;SDS011;65956;52.986;17.490;2023-04-06T03:37:44;27.30;;;12.00;;
77026;SDS011;65956;52.986;17.490;2023-04-06T03:40:11;24.60;;;12.80;;
77026;SDS011;65956;52.986;17.490;2023-04-06T03:42:37;23.60;;;11.90;;
77026;SDS011;65956;52.986;17.490;2023-04-06T03:45:09;22.40;;;10.30;;
77026;SDS011;65956;52.986;17.490;2023-04-06T03:47:35;21.40;;;10.90;;
77026;SDS011;65956;52.986;17.490;2023-04-06T03:50:03;21.70;;;11.20;;
77026;SDS011;65956;52.986;17.490;2023-04-06T03:52:30;23.90;;;10.90;;
77026;SDS011;65956;52.986;17.490;2023-04-06T03:54:56;36.30;;;12.70;;
77026;SDS011;65956;52.986;17.490;2023-04-06T03:57:22;27.20;;;13.70;;
77026;SDS011;65956;52.986;17.490;2023-04-06T03:59:48;26.60;;;12.70;;
77026;SDS011;65956;52.986;17.490;2023-04-06T04:02:14;27.10;;;12.60;;
77026;SDS011;65956;52.986;17.490;2023-04-06T04:04:40;27.40;;;12.40;;
77026;SDS011;65956;52.986;17.490;2023-04-06T04:07:06;25.90;;;12.00;;
77026;SDS011;65956;52.986;17.490;2023-04-06T04:09:32;25.30;;;12.90;;
77026;SDS011;65956;52.986;17.490;2023-04-06T04:11:58;26.10;;;12.50;;
77026;SDS011;65956;52.986;17.490;2023-04-06T04:14:24;29.50;;;14.10;;
77026;SDS011;65956;52.986;17.490;2023-04-06T04:16:51;33.00;;;16.70;;
77026;SDS011;65956;52.986;17.490;2023-04-06T04:19:17;38.30;;;18.90;;
77026;SDS011;65956;52.986;17.490;2023-04-06T04:21:44;43.20;;;21.30;;
77026;SDS011;65956;52.986;17.490;2023-04-06T04:24:12;40.80;;;19.90;;
77026;SDS011;65956;52.986;17.490;2023-04-06T04:26:39;30.70;;;18.80;;
77026;SDS011;65956;52.986;17.490;2023-04-06T04:29:06;33.00;;;19.00;;
77026;SDS011;65956;52.986;17.490;2023-04-06T04:31:32;37.50;;;20.40;;
77026;SDS011;65956;52.986;17.490;2023-04-06T04:34:01;31.80;;;17.30;;
77026;SDS011;65956;52.986;17.490;2023-04-06T04:36:29;34.00;;;18.40;;
77026;SDS011;65956;52.986;17.490;2023-04-06T04:38:56;32.80;;;16.60;;
77026;SDS011;65956;52.986;17.490;2023-04-06T04:41:23;28.00;;;15.20;;
77026;SDS011;65956;52.986;17.490;2023-04-06T04:43:49;31.60;;;16.40;;
77026;SDS011;65956;52.986;17.490;2023-04-06T04:46:19;32.00;;;15.60;;
77026;SDS011;65956;52.986;17.490;2023-04-06T04:48:46;24.90;;;14.50;;
77026;SDS011;65956;52.986;17.490;2023-04-06T04:51:12;27.90;;;13.50;;
77026;SDS011;65956;52.986;17.490;2023-04-06T04:53:54;28.10;;;14.20;;
77026;SDS011;65956;52.986;17.490;2023-04-06T04:56:24;30.80;;;15.60;;
77026;SDS011;65956;52.986;17.490;2023-04-06T04:58:54;33.10;;;14.40;;
77026;SDS011;65956;52.986;17.490;2023-04-06T05:01:21;50.50;;;16.10;;
77026;SDS011;65956;52.986;17.490;2023-04-06T05:03:47;55.40;;;18.70;;
77026;SDS011;65956;52.986;17.490;2023-04-06T05:06:14;62.10;;;22.80;;
77026;SDS011;65956;52.986;17.490;2023-04-06T05:08:41;103.00;;;35.80;;
77026;SDS011;65956;52.986;17.490;2023-04-06T05:11:08;80.30;;;28.20;;
77026;SDS011;65956;52.986;17.490;2023-04-06T05:13:37;68.40;;;27.00;;
77026;SDS011;65956;52.986;17.490;2023-04-06T05:16:08;59.70;;;23.40;;
77026;SDS011;65956;52.986;17.490;2023-04-06T05:18:34;61.50;;;23.20;;
77026;SDS011;65956;52.986;17.490;2023-04-06T05:21:00;50.10;;;21.60;;
77026;SDS011;65956;52.986;17.490;2023-04-06T05:23:32;64.70;;;23.20;;
77026;SDS011;65956;52.986;17.490;2023-04-06T05:26:00;58.00;;;23.20;;
77026;SDS011;65956;52.986;17.490;2023-04-06T05:28:26;58.50;;;21.60;;
77026;SDS011;65956;52.986;17.490;2023-04-06T05:30:53;48.40;;;21.10;;
77026;SDS011;65956;52.986;17.490;2023-04-06T05:33:19;47.60;;;21.70;;
77026;SDS011;65956;52.986;17.490;2023-04-06T05:35:55;35.90;;;17.80;;
77026;SDS011;65956;52.986;17.490;2023-04-06T05:38:21;27.00;;;14.80;;
77026;SDS011;65956;52.986;17.490;2023-04-06T05:40:48;35.20;;;17.60;;
77026;SDS011;65956;52.986;17.490;2023-04-06T05:43:14;41.70;;;20.10;;
77026;SDS011;65956;52.986;17.490;2023-04-06T05:45:45;50.80;;;23.10;;
77026;SDS011;65956;52.986;17.490;2023-04-06T05:48:11;101.50;;;44.70;;
77026;SDS011;65956;52.986;17.490;2023-04-06T05:50:37;132.50;;;49.20;;
77026;SDS011;65956;52.986;17.490;2023-04-06T05:53:04;123.10;;;44.80;;
77026;SDS011;65956;52.986;17.490;2023-04-06T05:55:34;117.40;;;40.60;;
77026;SDS011;65956;52.986;17.490;2023-04-06T05:58:14;42.80;;;18.30;;
77026;SDS011;65956;52.986;17.490;2023-04-06T06:00:41;38.40;;;18.10;;
77026;SDS011;65956;52.986;17.490;2023-04-06T06:03:08;45.10;;;17.90;;
77026;SDS011;65956;52.986;17.490;2023-04-06T06:05:36;48.90;;;18.30;;
77026;SDS011;65956;52.986;17.490;2023-04-06T06:08:07;56.40;;;25.50;;
77026;SDS011;65956;52.986;17.490;2023-04-06T06:10:34;220.10;;;79.30;;
77026;SDS011;65956;52.986;17.490;2023-04-06T06:13:00;352.40;;;133.30;;
77026;SDS011;65956;52.986;17.490;2023-04-06T06:15:26;105.20;;;54.20;;
77026;SDS011;65956;52.986;17.490;2023-04-06T06:17:53;56.60;;;28.20;;
77026;SDS011;65956;52.986;17.490;2023-04-06T06:20:19;38.30;;;18.90;;
77026;SDS011;65956;52.986;17.490;2023-04-06T06:22:47;35.40;;;14.40;;
77026;SDS011;65956;52.986;17.490;2023-04-06T06:25:16;29.40;;;14.40;;
77026;SDS011;65956;52.986;17.490;2023-04-06T06:27:44;30.30;;;14.50;;
77026;SDS011;65956;52.986;17.490;2023-04-06T06:30:10;26.30;;;14.00;;
77026;SDS011;65956;52.986;17.490;2023-04-06T06:32:39;28.30;;;14.30;;
77026;SDS011;65956;52.986;17.490;2023-04-06T06:35:05;27.50;;;13.30;;
77026;SDS011;65956;52.986;17.490;2023-04-06T06:37:32;24.90;;;12.40;;
77026;SDS011;65956;52.986;17.490;2023-04-06T06:39:59;22.50;;;11.90;;
77026;SDS011;65956;52.986;17.490;2023-04-06T06:42:25;27.50;;;13.10;;
77026;SDS011;65956;52.986;17.490;2023-04-06T06:45:01;19.30;;;10.90;;
77026;SDS011;65956;52.986;17.490;2023-04-06T06:47:27;18.50;;;9.80;;
77026;SDS011;65956;52.986;17.490;2023-04-06T06:49:53;18.80;;;8.80;;
77026;SDS011;65956;52.986;17.490;2023-04-06T06:52:19;18.40;;;10.10;;
77026;SDS011;65956;52.986;17.490;2023-04-06T06:54:45;20.90;;;10.40;;
77026;SDS011;65956;52.986;17.490;2023-04-06T06:57:11;19.10;;;10.20;;
77026;SDS011;65956;52.986;17.490;2023-04-06T06:59:40;19.00;;;9.80;;
77026;SDS011;65956;52.986;17.490;2023-04-06T07:02:06;24.10;;;10.40;;
77026;SDS011;65956;52.986;17.490;2023-04-06T07:04:32;18.80;;;10.60;;
77026;SDS011;65956;52.986;17.490;2023-04-06T07:06:58;16.90;;;9.00;;
77026;SDS011;65956;52.986;17.490;2023-04-06T07:09:24;16.90;;;9.50;;
77026;SDS011;65956;52.986;17.490;2023-04-06T07:11:52;20.50;;;9.90;;
77026;SDS011;65956;52.986;17.490;2023-04-06T07:14:18;19.10;;;9.40;;
77026;SDS011;65956;52.986;17.490;2023-04-06T07:16:45;15.60;;;8.50;;
77026;SDS011;65956;52.986;17.490;2023-04-06T07:19:12;20.30;;;11.30;;
77026;SDS011;65956;52.986;17.490;2023-04-06T07:21:38;22.60;;;11.90;;
77026;SDS011;65956;52.986;17.490;2023-04-06T07:24:05;23.40;;;12.60;;
77026;SDS011;65956;52.986;17.490;2023-04-06T07:26:31;19.70;;;11.10;;
77026;SDS011;65956;52.986;17.490;2023-04-06T07:28:58;21.80;;;12.30;;
77026;SDS011;65956;52.986;17.490;2023-04-06T07:31:24;20.90;;;11.40;;
77026;SDS011;65956;52.986;17.490;2023-04-06T07:33:52;17.30;;;9.60;;
77026;SDS011;65956;52.986;17.490;2023-04-06T07:36:18;26.30;;;10.70;;
77026;SDS011;65956;52.986;17.490;2023-04-06T07:38:46;18.70;;;10.20;;
77026;SDS011;65956;52.986;17.490;2023-04-06T07:41:12;24.80;;;12.30;;
77026;SDS011;65956;52.986;17.490;2023-04-06T07:43:42;20.00;;;10.10;;
77026;SDS011;65956;52.986;17.490;2023-04-06T07:46:08;18.90;;;10.00;;
77026;SDS011;65956;52.986;17.490;2023-04-06T07:48:35;15.20;;;8.90;;
77026;SDS011;65956;52.986;17.490;2023-04-06T07:51:04;13.20;;;7.10;;
77026;SDS011;65956;52.986;17.490;2023-04-06T07:53:31;10.70;;;6.90;;
77026;SDS011;65956;52.986;17.490;2023-04-06T07:56:00;10.80;;;5.80;;
77026;SDS011;65956;52.986;17.490;2023-04-06T07:58:26;9.20;;;4.80;;
77026;SDS011;65956;52.986;17.490;2023-04-06T08:00:52;8.10;;;4.10;;
77026;SDS011;65956;52.986;17.490;2023-04-06T08:03:20;9.80;;;4.60;;
77026;SDS011;65956;52.986;17.490;2023-04-06T08:05:51;11.80;;;5.70;;
77026;SDS011;65956;52.986;17.490;2023-04-06T08:08:18;7.60;;;3.60;;
77026;SDS011;65956;52.986;17.490;2023-04-06T08:10:47;6.80;;;4.10;;
77026;SDS011;65956;52.986;17.490;2023-04-06T08:13:14;10.20;;;5.00;;
77026;SDS011;65956;52.986;17.490;2023-04-06T08:15:41;11.30;;;5.80;;
77026;SDS011;65956;52.986;17.490;2023-04-06T08:18:07;11.40;;;5.50;;
77026;SDS011;65956;52.986;17.490;2023-04-06T08:20:34;9.90;;;5.60;;
77026;SDS011;65956;52.986;17.490;2023-04-06T08:23:00;9.00;;;4.60;;
77026;SDS011;65956;52.986;17.490;2023-04-06T08:25:26;9.50;;;4.50;;
77026;SDS011;65956;52.986;17.490;2023-04-06T08:27:52;8.20;;;4.30;;
77026;SDS011;65956;52.986;17.490;2023-04-06T08:30:18;8.60;;;4.40;;
77026;SDS011;65956;52.986;17.490;2023-04-06T08:32:45;9.60;;;4.50;;
77026;SDS011;65956;52.986;17.490;2023-04-06T08:35:11;11.70;;;5.10;;
77026;SDS011;65956;52.986;17.490;2023-04-06T08:37:38;8.40;;;4.70;;
77026;SDS011;65956;52.986;17.490;2023-04-06T08:40:04;16.20;;;8.60;;
77026;SDS011;65956;52.986;17.490;2023-04-06T08:42:32;13.80;;;5.90;;
77026;SDS011;65956;52.986;17.490;2023-04-06T08:44:59;10.50;;;5.00;;
77026;SDS011;65956;52.986;17.490;2023-04-06T08:47:26;8.40;;;4.00;;
77026;SDS011;65956;52.986;17.490;2023-04-06T08:49:53;17.30;;;5.50;;
77026;SDS011;65956;52.986;17.490;2023-04-06T08:52:20;10.70;;;5.20;;
77026;SDS011;65956;52.986;17.490;2023-04-06T08:54:46;8.70;;;4.80;;
77026;SDS011;65956;52.986;17.490;2023-04-06T08:57:13;31.00;;;10.70;;
77026;SDS011;65956;52.986;17.490;2023-04-06T08:59:40;32.00;;;8.90;;
77026;SDS011;65956;52.986;17.490;2023-04-06T09:02:07;10.50;;;5.60;;
77026;SDS011;65956;52.986;17.490;2023-04-06T09:04:42;27.80;;;12.00;;
77026;SDS011;65956;52.986;17.490;2023-04-06T09:07:10;8.80;;;4.90;;
77026;SDS011;65956;52.986;17.490;2023-04-06T09:09:37;9.90;;;5.40;;
77026;SDS011;65956;52.986;17.490;2023-04-06T09:12:05;9.70;;;5.40;;
77026;SDS011;65956;52.986;17.490;2023-04-06T09:14:35;9.80;;;4.90;;
77026;SDS011;65956;52.986;17.490;2023-04-06T09:17:03;14.90;;;5.70;;
77026;SDS011;65956;52.986;17.490;2023-04-06T09:19:31;15.30;;;7.50;;
77026;SDS011;65956;52.986;17.490;2023-04-06T09:22:06;11.80;;;5.10;;
77026;SDS011;65956;52.986;17.490;2023-04-06T09:24:45;8.90;;;4.60;;
77026;SDS011;65956;52.986;17.490;2023-04-06T09:27:13;8.50;;;4.60;;
77026;SDS011;65956;52.986;17.490;2023-04-06T09:29:40;14.60;;;7.30;;
77026;SDS011;65956;52.986;17.490;2023-04-06T09:32:08;15.90;;;7.20;;
77026;SDS011;65956;52.986;17.490;2023-04-06T09:34:37;11.40;;;5.00;;
77026;SDS011;65956;52.986;17.490;2023-04-06T09:37:17;7.30;;;3.20;;
77026;SDS011;65956;52.986;17.490;2023-04-06T09:39:44;9.10;;;5.40;;
77026;SDS011;65956;52.986;17.490;2023-04-06T09:42:22;7.90;;;4.30;;
77026;SDS011;65956;52.986;17.490;2023-04-06T09:44:52;11.80;;;5.60;;
77026;SDS011;65956;52.986;17.490;2023-04-06T09:47:18;15.30;;;7.00;;
77026;SDS011;65956;52.986;17.490;2023-04-06T09:49:45;10.50;;;6.00;;
77026;SDS011;65956;52.986;17.490;2023-04-06T09:52:15;12.90;;;6.00;;
77026;SDS011;65956;52.986;17.490;2023-04-06T09:54:43;11.90;;;6.50;;
77026;SDS011;65956;52.986;17.490;2023-04-06T09:57:16;12.40;;;6.30;;
77026;SDS011;65956;52.986;17.490;2023-04-06T10:02:44;12.90;;;5.70;;
77026;SDS011;65956;52.986;17.490;2023-04-06T10:08:28;13.20;;;6.50;;
77026;SDS011;65956;52.986;17.490;2023-04-06T10:10:55;9.10;;;5.50;;
77026;SDS011;65956;52.986;17.490;2023-04-06T10:13:22;9.20;;;5.50;;
77026;SDS011;65956;52.986;17.490;2023-04-06T10:15:49;10.00;;;5.70;;
77026;SDS011;65956;52.986;17.490;2023-04-06T10:18:17;11.70;;;6.60;;
77026;SDS011;65956;52.986;17.490;2023-04-06T10:20:53;9.40;;;5.00;;
77026;SDS011;65956;52.986;17.490;2023-04-06T10:23:33;10.50;;;5.60;;
77026;SDS011;65956;52.986;17.490;2023-04-06T10:26:02;12.00;;;6.50;;
77026;SDS011;65956;52.986;17.490;2023-04-06T10:28:32;14.10;;;8.20;;
77026;SDS011;65956;52.986;17.490;2023-04-06T10:31:04;10.10;;;6.70;;
77026;SDS011;65956;52.986;17.490;2023-04-06T10:33:32;13.10;;;7.60;;
77026;SDS011;65956;52.986;17.490;2023-04-06T10:36:08;8.90;;;6.10;;
77026;SDS011;65956;52.986;17.490;2023-04-06T10:38:47;12.50;;;7.60;;
77026;SDS011;65956;52.986;17.490;2023-04-06T10:41:19;32.30;;;10.80;;
77026;SDS011;65956;52.986;17.490;2023-04-06T10:43:46;13.50;;;6.70;;
77026;SDS011;65956;52.986;17.490;2023-04-06T10:46:25;9.20;;;5.50;;
77026;SDS011;65956;52.986;17.490;2023-04-06T10:48:52;10.90;;;6.30;;
77026;SDS011;65956;52.986;17.490;2023-04-06T10:51:19;15.40;;;6.70;;
77026;SDS011;65956;52.986;17.490;2023-04-06T10:53:53;13.00;;;7.10;;
77026;SDS011;65956;52.986;17.490;2023-04-06T10:56:24;8.80;;;5.30;;
77026;SDS011;65956;52.986;17.490;2023-04-06T10:58:53;15.90;;;7.50;;
77026;SDS011;65956;52.986;17.490;2023-04-06T11:01:24;9.90;;;5.70;;
77026;SDS011;65956;52.986;17.490;2023-04-06T11:03:55;9.90;;;5.90;;
77026;SDS011;65956;52.986;17.490;2023-04-06T11:06:26;9.40;;;5.20;;
77026;SDS011;65956;52.986;17.490;2023-04-06T11:08:59;8.50;;;5.20;;
77026;SDS011;65956;52.986;17.490;2023-04-06T11:11:26;10.40;;;6.10;;
77026;SDS011;65956;52.986;17.490;2023-04-06T11:13:53;13.00;;;7.60;;
77026;SDS011;65956;52.986;17.490;2023-04-06T11:16:30;8.70;;;5.10;;
77026;SDS011;65956;52.986;17.490;2023-04-06T11:18:58;10.40;;;5.90;;
77026;SDS011;65956;52.986;17.490;2023-04-06T11:24:16;8.20;;;5.40;;
77026;SDS011;65956;52.986;17.490;2023-04-06T11:26:46;9.00;;;5.20;;
77026;SDS011;65956;52.986;17.490;2023-04-06T11:29:17;19.10;;;16.90;;
77026;SDS011;65956;52.986;17.490;2023-04-06T11:31:46;26.00;;;20.30;;
77026;SDS011;65956;52.986;17.490;2023-04-06T11:34:16;37.00;;;12.80;;
77026;SDS011;65956;52.986;17.490;2023-04-06T11:36:44;16.20;;;6.90;;
77026;SDS011;65956;52.986;17.490;2023-04-06T11:39:13;10.20;;;6.10;;
77026;SDS011;65956;52.986;17.490;2023-04-06T11:41:51;8.10;;;5.50;;
77026;SDS011;65956;52.986;17.490;2023-04-06T11:46:54;11.40;;;6.10;;
77026;SDS011;65956;52.986;17.490;2023-04-06T11:49:26;9.60;;;6.40;;
77026;SDS011;65956;52.986;17.490;2023-04-06T11:51:54;9.60;;;5.30;;
77026;SDS011;65956;52.986;17.490;2023-04-06T11:54:33;27.20;;;14.60;;
77026;SDS011;65956;52.986;17.490;2023-04-06T11:57:01;33.20;;;17.70;;
77026;SDS011;65956;52.986;17.490;2023-04-06T11:59:28;17.60;;;9.10;;
77026;SDS011;65956;52.986;17.490;2023-04-06T12:01:54;14.00;;;7.20;;
77026;SDS011;65956;52.986;17.490;2023-04-06T12:04:20;10.40;;;7.00;;
77026;SDS011;65956;52.986;17.490;2023-04-06T12:06:47;21.50;;;12.80;;
77026;SDS011;65956;52.986;17.490;2023-04-06T12:09:13;16.10;;;8.50;;
77026;SDS011;65956;52.986;17.490;2023-04-06T12:11:40;28.10;;;13.00;;
77026;SDS011;65956;52.986;17.490;2023-04-06T12:14:06;14.80;;;8.50;;
77026;SDS011;65956;52.986;17.490;2023-04-06T12:16:36;8.00;;;4.80;;
77026;SDS011;65956;52.986;17.490;2023-04-06T12:19:02;68.80;;;24.80;;
77026;SDS011;65956;52.986;17.490;2023-04-06T12:21:35;10.00;;;5.20;;
77026;SDS011;65956;52.986;17.490;2023-04-06T12:24:03;21.70;;;10.30;;
77026;SDS011;65956;52.986;17.490;2023-04-06T12:26:30;14.70;;;7.60;;
77026;SDS011;65956;52.986;17.490;2023-04-06T12:28:56;28.80;;;12.90;;
77026;SDS011;65956;52.986;17.490;2023-04-06T12:31:25;26.80;;;10.60;;
77026;SDS011;65956;52.986;17.490;2023-04-06T12:33:51;29.40;;;14.30;;
77026;SDS011;65956;52.986;17.490;2023-04-06T12:36:18;12.10;;;6.90;;
77026;SDS011;65956;52.986;17.490;2023-04-06T12:38:50;10.10;;;5.60;;
77026;SDS011;65956;52.986;17.490;2023-04-06T12:41:17;13.10;;;7.80;;
77026;SDS011;65956;52.986;17.490;2023-04-06T12:43:44;12.70;;;7.00;;
77026;SDS011;65956;52.986;17.490;2023-04-06T12:46:11;12.50;;;7.60;;
77026;SDS011;65956;52.986;17.490;2023-04-06T12:48:37;19.50;;;12.20;;
77026;SDS011;65956;52.986;17.490;2023-04-06T12:51:04;18.70;;;11.20;;
77026;SDS011;65956;52.986;17.490;2023-04-06T12:53:32;28.60;;;15.40;;
77026;SDS011;65956;52.986;17.490;2023-04-06T12:56:00;19.10;;;12.50;;
77026;SDS011;65956;52.986;17.490;2023-04-06T12:58:27;29.70;;;22.20;;
77026;SDS011;65956;52.986;17.490;2023-04-06T13:00:54;14.60;;;9.40;;
77026;SDS011;65956;52.986;17.490;2023-04-06T13:03:21;13.30;;;8.70;;
77026;SDS011;65956;52.986;17.490;2023-04-06T13:05:49;18.30;;;11.70;;
77026;SDS011;65956;52.986;17.490;2023-04-06T13:08:18;14.20;;;10.00;;
77026;SDS011;65956;52.986;17.490;2023-04-06T13:10:48;15.00;;;8.70;;
77026;SDS011;65956;52.986;17.490;2023-04-06T13:13:17;16.10;;;11.90;;
77026;SDS011;65956;52.986;17.490;2023-04-06T13:15:44;19.60;;;14.40;;
77026;SDS011;65956;52.986;17.490;2023-04-06T13:18:10;15.70;;;10.00;;
77026;SDS011;65956;52.986;17.490;2023-04-06T13:20:36;9.00;;;6.80;;
77026;SDS011;65956;52.986;17.490;2023-04-06T13:23:02;18.60;;;11.90;;
77026;SDS011;65956;52.986;17.490;2023-04-06T13:25:29;10.40;;;7.00;;
77026;SDS011;65956;52.986;17.490;2023-04-06T13:27:55;16.40;;;12.70;;
77026;SDS011;65956;52.986;17.490;2023-04-06T13:30:21;13.60;;;9.20;;
77026;SDS011;65956;52.986;17.490;2023-04-06T13:32:47;16.80;;;13.90;;
77026;SDS011;65956;52.986;17.490;2023-04-06T13:35:14;12.40;;;7.70;;
77026;SDS011;65956;52.986;17.490;2023-04-06T13:37:40;7.20;;;5.20;;
77026;SDS011;65956;52.986;17.490;2023-04-06T13:40:06;9.30;;;6.10;;
77026;SDS011;65956;52.986;17.490;2023-04-06T13:42:33;12.40;;;10.90;;
77026;SDS011;65956;52.986;17.490;2023-04-06T13:45:01;10.20;;;7.80;;
77026;SDS011;65956;52.986;17.490;2023-04-06T13:47:27;15.70;;;11.80;;
77026;SDS011;65956;52.986;17.490;2023-04-06T13:49:53;19.90;;;16.60;;
77026;SDS011;65956;52.986;17.490;2023-04-06T13:52:20;22.10;;;20.20;;
77026;SDS011;65956;52.986;17.490;2023-04-06T13:54:48;10.30;;;9.20;;
77026;SDS011;65956;52.986;17.490;2023-04-06T13:57:15;59.20;;;41.20;;
77026;SDS011;65956;52.986;17.490;2023-04-06T13:59:42;8.50;;;5.60;;
77026;SDS011;65956;52.986;17.490;2023-04-06T14:02:08;9.10;;;6.40;;
77026;SDS011;65956;52.986;17.490;2023-04-06T14:04:36;14.80;;;12.00;;
77026;SDS011;65956;52.986;17.490;2023-04-06T14:07:03;14.70;;;8.90;;
77026;SDS011;65956;52.986;17.490;2023-04-06T14:09:29;17.70;;;11.50;;
77026;SDS011;65956;52.986;17.490;2023-04-06T14:11:56;12.90;;;8.80;;
77026;SDS011;65956;52.986;17.490;2023-04-06T14:14:22;17.30;;;11.60;;
77026;SDS011;65956;52.986;17.490;2023-04-06T14:16:49;16.40;;;10.40;;
77026;SDS011;65956;52.986;17.490;2023-04-06T14:19:16;28.30;;;18.20;;
77026;SDS011;65956;52.986;17.490;2023-04-06T14:21:47;19.10;;;11.00;;
77026;SDS011;65956;52.986;17.490;2023-04-06T14:24:14;11.00;;;6.60;;
77026;SDS011;65956;52.986;17.490;2023-04-06T14:26:41;8.00;;;5.70;;
77026;SDS011;65956;52.986;17.490;2023-04-06T14:29:08;9.60;;;5.80;;
77026;SDS011;65956;52.986;17.490;2023-04-06T14:31:35;16.70;;;10.50;;
77026;SDS011;65956;52.986;17.490;2023-04-06T14:34:01;11.90;;;7.70;;
77026;SDS011;65956;52.986;17.490;2023-04-06T14:36:32;10.50;;;7.10;;
77026;SDS011;65956;52.986;17.490;2023-04-06T14:39:03;12.40;;;8.00;;
77026;SDS011;65956;52.986;17.490;2023-04-06T14:41:33;18.80;;;11.00;;
77026;SDS011;65956;52.986;17.490;2023-04-06T14:44:00;19.10;;;10.10;;
77026;SDS011;65956;52.986;17.490;2023-04-06T14:46:27;16.80;;;9.90;;
77026;SDS011;65956;52.986;17.490;2023-04-06T14:48:56;21.80;;;10.70;;
77026;SDS011;65956;52.986;17.490;2023-04-06T14:51:26;25.30;;;11.10;;
77026;SDS011;65956;52.986;17.490;2023-04-06T14:53:53;20.40;;;10.20;;
77026;SDS011;65956;52.986;17.490;2023-04-06T14:56:23;14.70;;;8.30;;
77026;SDS011;65956;52.986;17.490;2023-04-06T14:58:49;17.20;;;9.20;;
77026;SDS011;65956;52.986;17.490;2023-04-06T15:01:19;15.20;;;8.10;;
77026;SDS011;65956;52.986;17.490;2023-04-06T15:03:46;41.20;;;23.70;;
77026;SDS011;65956;52.986;17.490;2023-04-06T15:06:13;27.60;;;14.90;;
77026;SDS011;65956;52.986;17.490;2023-04-06T15:08:41;19.80;;;11.60;;
77026;SDS011;65956;52.986;17.490;2023-04-06T15:11:10;14.00;;;8.40;;
77026;SDS011;65956;52.986;17.490;2023-04-06T15:13:37;14.50;;;9.80;;
77026;SDS011;65956;52.986;17.490;2023-04-06T15:16:05;15.60;;;9.90;;
77026;SDS011;65956;52.986;17.490;2023-04-06T15:18:33;22.70;;;14.90;;
77026;SDS011;65956;52.986;17.490;2023-04-06T15:21:00;26.90;;;19.20;;
77026;SDS011;65956;52.986;17.490;2023-04-06T15:23:26;29.10;;;18.70;;
77026;SDS011;65956;52.986;17.490;2023-04-06T15:25:56;23.20;;;16.90;;
77026;SDS011;65956;52.986;17.490;2023-04-06T15:28:23;22.80;;;12.90;;
77026;SDS011;65956;52.986;17.490;2023-04-06T15:30:50;22.00;;;13.40;;
77026;SDS011;65956;52.986;17.490;2023-04-06T15:33:16;22.30;;;12.80;;
77026;SDS011;65956;52.986;17.490;2023-04-06T15:35:43;9.20;;;5.30;;